Sheppard Air Force Base-Wichita Falls Municipal Airport
KSPS : now visible

Airfield :











YOU CAN JOIN US ON...

 
LOGIN :

Register | Disclaimer

   EN    FR    IT 

 









Legend :    VFR   Marginal VFR   IFR   Intensive IFR   Very Intensive IFR
Visi :
Ceiling :
>= 8 km
>= 3000ft
5 to 8 km
1000 to 3000 ft
1500m to 5 km
500 to 1000 ft
800 to 1500m
200 to 500 ft
< 800m
< 200 ft
Symbols :   Thunderstorms  Fog  Heavy snow  Heavy precipitations  Wind > 20 kt






- Airport Elevation : 1019 ft
- IATA code : SPS


KSPS - Sheppard Air Force Base-Wichita Falls Municipal

CURRENT METAR :
  • 291052Z 10004KT 10SM CLR 01/M03 A3035 RMK AO2 SLP280 T00111033 $

EXPIRED METARs :
  • 290952Z 35004KT 10SM CLR 01/M03 A3037 RMK AO2 SLP286 T00111033 $
  • 290852Z 32004KT 10SM CLR 02/M06 A3040 RMK AO2 SLP298 T00221056 58000 $
  • 290752Z 31006KT 10SM CLR 02/M06 A3042 RMK AO2 SLP303 T00221056 $
  • 290652Z 00000KT 10SM CLR 04/M07 A3041 RMK AO2 SLP300 T00391067 $

TAF KSPS
Valid from the 29 at 06:00 until the 01 at 06:00 UTC


290520Z 2906/0106 VRB03KT P6SM OVC200
FM291400 14007KT P6SM OVC070
FM292000 13009KT P6SM OVC100
KZFW FIR / North America



MET'MAP, your aeronautical weather chart ! - Copyright ORBIFLY December 2007 - Disclaimer

ORBIFLY MET'MAP TEAM :

Programming & Development : Alexandra Zaïnal
Original concept : Baudouin d'Aumeries
Technical & hardware support : Manuel Goepfert
Assistance : Marc-Olivier Méhu




SOURCES & CREDITS :

   NOAA       Earth
Advisory